createdAt,value
2017-11-22T00:00:47.016Z,86.90
2017-11-22T00:03:14.479Z,86.90
2017-11-22T00:05:42.792Z,86.70
2017-11-22T00:08:10.308Z,86.60
2017-11-22T00:10:37.801Z,86.50
2017-11-22T00:13:05.373Z,86.20
2017-11-22T00:15:32.876Z,86.20
2017-11-22T00:18:00.390Z,86.00
2017-11-22T00:20:27.861Z,86.20
2017-11-22T00:22:55.356Z,85.70
2017-11-22T00:25:22.824Z,85.80
2017-11-22T00:27:50.379Z,86.00
2017-11-22T00:30:17.847Z,85.60
2017-11-22T00:32:46.311Z,86.40
2017-11-22T00:35:13.759Z,85.60
2017-11-22T00:37:41.251Z,85.30
2017-11-22T00:40:09.503Z,85.20
2017-11-22T00:42:36.972Z,85.10
2017-11-22T00:45:04.471Z,85.10
2017-11-22T00:47:31.942Z,85.50
2017-11-22T00:49:59.470Z,85.30
2017-11-22T00:52:27.719Z,85.60
2017-11-22T00:54:55.192Z,85.60
2017-11-22T00:57:22.674Z,85.20
2017-11-22T00:59:50.146Z,85.40
2017-11-22T01:02:17.627Z,84.90
2017-11-22T01:04:45.142Z,84.00
2017-11-22T01:07:13.387Z,84.40
2017-11-22T01:09:40.891Z,84.40
2017-11-22T01:12:08.399Z,83.90
2017-11-22T01:14:35.872Z,84.20
2017-11-22T01:17:04.125Z,85.80
2017-11-22T01:19:31.693Z,85.80
2017-11-22T01:21:59.186Z,85.40
2017-11-22T01:24:27.434Z,84.10
2017-11-22T01:26:54.896Z,85.10
2017-11-22T01:29:22.376Z,84.30
2017-11-22T01:31:50.653Z,84.40
2017-11-22T01:34:19.221Z,84.20
2017-11-22T01:36:46.680Z,84.20
2017-11-22T01:39:14.176Z,84.10
2017-11-22T01:41:41.700Z,84.40
2017-11-22T01:44:09.224Z,84.10
2017-11-22T01:46:36.712Z,83.30
2017-11-22T01:49:04.231Z,83.30
2017-11-22T01:51:31.747Z,83.20
2017-11-22T01:54:00.041Z,83.30
2017-11-22T01:56:28.333Z,83.10
2017-11-22T01:58:55.849Z,83.10
2017-11-22T02:01:23.309Z,83.40
2017-11-22T02:03:50.903Z,83.20
2017-11-22T02:06:19.129Z,84.20
2017-11-22T02:08:46.585Z,84.20
2017-11-22T02:11:14.073Z,84.90
2017-11-22T02:13:42.300Z,85.00
2017-11-22T02:16:09.756Z,84.30
2017-11-22T02:18:37.232Z,84.30
2017-11-22T02:21:04.699Z,85.30
2017-11-22T02:23:32.192Z,84.50
2017-11-22T02:26:00.625Z,84.40
2017-11-22T02:28:28.104Z,84.40
2017-11-22T02:30:55.580Z,84.30
2017-11-22T02:33:23.072Z,84.40
2017-11-22T02:35:50.530Z,84.30
2017-11-22T02:38:18.052Z,84.20
2017-11-22T02:40:46.284Z,84.00
2017-11-22T02:43:13.752Z,83.90
2017-11-22T02:45:41.261Z,83.60
2017-11-22T02:48:09.519Z,83.60
2017-11-22T02:50:36.996Z,83.60
2017-11-22T02:53:05.216Z,83.80
2017-11-22T02:55:32.692Z,82.70
2017-11-22T02:58:00.159Z,82.40
2017-11-22T03:00:27.639Z,83.60
2017-11-22T03:02:55.868Z,82.30
2017-11-22T03:05:23.370Z,82.30
2017-11-22T03:07:51.596Z,82.40
2017-11-22T03:10:19.079Z,82.50
2017-11-22T03:12:46.548Z,82.20
2017-11-22T03:15:14.080Z,82.30
2017-11-22T03:17:41.557Z,82.70
2017-11-22T03:20:09.068Z,82.30
2017-11-22T03:22:36.858Z,83.00
2017-11-22T03:25:04.341Z,82.20
2017-11-22T03:27:31.803Z,82.10
2017-11-22T03:29:59.316Z,82.60
2017-11-22T03:32:26.780Z,82.40
2017-11-22T03:34:54.271Z,82.20
2017-11-22T03:37:21.779Z,82.30
2017-11-22T03:39:49.303Z,82.40
2017-11-22T03:42:16.814Z,82.60
2017-11-22T03:44:44.324Z,83.50
2017-11-22T03:47:11.813Z,82.30
2017-11-22T03:49:44.951Z,82.60
2017-11-22T03:52:18.191Z,83.90
2017-11-22T03:54:46.441Z,83.80
2017-11-22T03:57:13.932Z,83.90
2017-11-22T03:59:42.173Z,83.80
2017-11-22T04:02:09.640Z,83.80
2017-11-22T04:04:37.123Z,84.00
2017-11-22T04:07:05.384Z,84.20
2017-11-22T04:09:32.944Z,84.20
2017-11-22T04:12:01.175Z,84.80
2017-11-22T04:14:28.645Z,84.60
2017-11-22T04:16:56.152Z,84.50
2017-11-22T04:19:30.052Z,84.40
2017-11-22T04:21:58.304Z,84.40
2017-11-22T04:24:25.778Z,84.30
2017-11-22T04:26:53.235Z,84.30
2017-11-22T04:29:20.839Z,84.40
2017-11-22T04:31:48.300Z,84.20
2017-11-22T04:34:15.791Z,84.10
2017-11-22T04:36:43.313Z,84.50
2017-11-22T04:39:10.809Z,84.60
2017-11-22T04:41:38.281Z,84.30
2017-11-22T04:44:05.796Z,84.50
2017-11-22T04:46:33.299Z,84.30
2017-11-22T04:49:00.786Z,84.50
2017-11-22T04:51:29.024Z,84.40
2017-11-22T04:53:57.280Z,84.10
2017-11-22T04:56:24.756Z,84.80
2017-11-22T04:58:52.238Z,84.30
2017-11-22T05:01:19.743Z,84.10
2017-11-22T05:03:47.231Z,84.10
2017-11-22T05:06:15.504Z,84.10
2017-11-22T05:08:42.972Z,84.10
2017-11-22T05:11:10.444Z,84.10
2017-11-22T05:13:37.947Z,84.20
2017-11-22T05:16:05.410Z,83.80
2017-11-22T05:18:32.891Z,83.80
2017-11-22T05:21:00.458Z,83.80
2017-11-22T05:23:27.938Z,83.90
2017-11-22T05:25:55.412Z,84.20
2017-11-22T05:28:23.636Z,84.40
2017-11-22T05:30:51.104Z,84.30
2017-11-22T05:33:18.571Z,84.50
2017-11-22T05:35:46.108Z,84.20
2017-11-22T05:38:13.563Z,84.20
2017-11-22T05:40:41.038Z,84.00
2017-11-22T05:43:08.524Z,84.20
2017-11-22T05:45:36.040Z,84.30
2017-11-22T05:48:03.541Z,84.10
2017-11-22T05:50:31.019Z,84.00
2017-11-22T05:52:59.260Z,83.80
2017-11-22T05:55:26.719Z,83.80
2017-11-22T05:57:54.241Z,84.30
2017-11-22T06:00:22.523Z,84.00
2017-11-22T06:02:50.900Z,84.20
2017-11-22T06:05:18.390Z,84.40
2017-11-22T06:07:46.582Z,84.30
2017-11-22T06:10:14.072Z,84.40
2017-11-22T06:12:41.696Z,84.10
2017-11-22T06:15:09.172Z,84.20
2017-11-22T06:17:36.660Z,84.10
2017-11-22T06:20:04.130Z,84.20
2017-11-22T06:22:31.627Z,84.30
2017-11-22T06:24:59.122Z,84.10
2017-11-22T06:27:26.651Z,83.90
2017-11-22T06:29:57.002Z,84.20
2017-11-22T06:32:25.266Z,84.00
2017-11-22T06:34:52.804Z,83.90
2017-11-22T06:37:20.436Z,83.90
2017-11-22T06:39:48.452Z,83.90
2017-11-22T06:42:15.935Z,84.00
2017-11-22T06:44:44.180Z,84.60
2017-11-22T06:47:11.657Z,84.40
2017-11-22T06:49:39.123Z,84.40
2017-11-22T06:52:07.379Z,84.30
2017-11-22T06:54:35.187Z,84.10
2017-11-22T06:57:02.670Z,84.40
2017-11-22T06:59:30.227Z,84.20
2017-11-22T07:01:58.592Z,84.30
2017-11-22T07:04:26.086Z,84.60
2017-11-22T07:06:53.552Z,84.10
2017-11-22T07:09:21.045Z,84.20
2017-11-22T07:11:49.290Z,83.80
2017-11-22T07:14:16.764Z,83.80
2017-11-22T07:16:49.879Z,83.70
2017-11-22T07:19:18.110Z,84.10
2017-11-22T07:21:45.587Z,84.00
2017-11-22T07:24:13.883Z,83.90
2017-11-22T07:26:42.124Z,83.80
2017-11-22T07:29:09.631Z,83.70
2017-11-22T07:31:37.109Z,83.70
2017-11-22T07:34:04.579Z,83.50
2017-11-22T07:36:37.690Z,83.10
2017-11-22T07:39:05.825Z,83.40
2017-11-22T07:41:33.315Z,83.40
2017-11-22T07:44:00.813Z,83.20
2017-11-22T07:46:29.076Z,83.40
2017-11-22T07:48:56.548Z,83.40
2017-11-22T07:51:30.495Z,80.80
2017-11-22T07:53:57.972Z,80.60
2017-11-22T07:56:25.574Z,79.70
2017-11-22T07:58:53.060Z,79.30
2017-11-22T08:01:20.544Z,78.50
2017-11-22T08:03:49.150Z,78.40
2017-11-22T08:06:16.656Z,78.60
2017-11-22T08:08:44.951Z,78.40
2017-11-22T08:11:12.444Z,78.30
2017-11-22T08:13:39.912Z,78.70
2017-11-22T08:16:08.155Z,78.60
2017-11-22T08:18:35.677Z,78.70
2017-11-22T08:21:03.921Z,76.70
2017-11-22T08:23:31.426Z,76.70
2017-11-22T08:25:58.900Z,76.30
2017-11-22T08:28:26.435Z,76.40
2017-11-22T08:30:54.724Z,75.90
2017-11-22T08:33:22.195Z,76.00
2017-11-22T08:35:49.672Z,75.80
2017-11-22T08:38:17.155Z,75.10
2017-11-22T08:40:44.633Z,75.30
2017-11-22T08:43:18.050Z,75.40
2017-11-22T08:45:45.523Z,74.90
2017-11-22T08:48:12.997Z,75.10
2017-11-22T08:50:40.492Z,74.20
2017-11-22T08:53:07.963Z,74.20
2017-11-22T08:55:41.918Z,71.80
2017-11-22T08:58:15.178Z,71.90
2017-11-22T09:00:43.450Z,71.20
2017-11-22T09:03:14.630Z,70.40
2017-11-22T09:05:48.699Z,70.40
2017-11-22T09:08:16.165Z,69.30
2017-11-22T09:10:43.641Z,70.20
2017-11-22T09:16:07.506Z,68.80
2017-11-22T09:18:38.598Z,66.30
2017-11-22T09:21:12.721Z,66.40
2017-11-22T09:23:40.242Z,65.80
2017-11-22T09:26:07.716Z,66.50
2017-11-22T09:28:35.214Z,66.30
2017-11-22T09:31:08.297Z,66.00
2017-11-22T09:33:35.797Z,65.20
2017-11-22T09:36:04.056Z,65.00
2017-11-22T09:38:31.530Z,65.00
2017-11-22T09:40:59.803Z,60.30
2017-11-22T09:43:28.050Z,60.10
2017-11-22T09:45:55.565Z,60.00
2017-11-22T09:48:23.056Z,60.20
2017-11-22T09:50:50.576Z,61.10
2017-11-22T09:53:18.092Z,60.30
2017-11-22T09:55:45.617Z,60.00
2017-11-22T09:58:13.094Z,60.20
2017-11-22T10:00:40.616Z,59.90
2017-11-22T10:03:08.112Z,59.40
2017-11-22T10:05:35.605Z,59.50
2017-11-22T10:08:03.283Z,58.30
2017-11-22T10:10:31.533Z,55.00
2017-11-22T10:12:59.020Z,54.90
2017-11-22T10:15:27.273Z,50.40
2017-11-22T10:18:06.452Z,49.60
2017-11-22T10:20:33.946Z,48.90
2017-11-22T10:23:01.418Z,49.50
2017-11-22T10:25:29.590Z,47.80
2017-11-22T10:28:02.642Z,47.20
2017-11-22T10:30:30.146Z,48.10
2017-11-22T10:32:57.676Z,46.70
2017-11-22T10:35:25.179Z,48.00
2017-11-22T10:37:53.435Z,48.80
2017-11-22T10:40:21.742Z,48.40
2017-11-22T10:42:49.276Z,48.40
2017-11-22T10:45:16.755Z,49.70
2017-11-22T10:47:45.015Z,49.30
2017-11-22T10:50:12.519Z,49.30
2017-11-22T10:52:40.016Z,47.30
2017-11-22T10:55:07.533Z,47.20
2017-11-22T10:57:35.131Z,46.20
2017-11-22T11:00:02.684Z,45.30
2017-11-22T11:02:30.161Z,45.70
2017-11-22T11:04:57.644Z,44.30
2017-11-22T11:07:25.893Z,44.20
2017-11-22T11:09:53.370Z,44.30
2017-11-22T11:12:20.910Z,43.60
2017-11-22T11:14:48.395Z,43.50
2017-11-22T11:17:15.870Z,44.30
2017-11-22T11:19:44.120Z,43.80
2017-11-22T11:22:11.676Z,43.80
2017-11-22T11:24:39.296Z,42.30
2017-11-22T11:27:06.763Z,42.10
2017-11-22T11:29:34.385Z,42.80
2017-11-22T11:32:02.725Z,41.80
2017-11-22T11:34:30.218Z,41.70
2017-11-22T11:36:58.494Z,40.90
2017-11-22T11:39:26.640Z,40.80
2017-11-22T11:41:54.171Z,42.70
2017-11-22T11:44:21.761Z,44.50
2017-11-22T11:46:49.269Z,46.00
2017-11-22T11:49:16.746Z,47.50
2017-11-22T11:51:45.436Z,48.90
2017-11-22T11:54:12.998Z,50.00
2017-11-22T11:56:40.487Z,51.60
2017-11-22T11:59:07.966Z,51.70
2017-11-22T12:01:36.225Z,52.80
2017-11-22T12:04:03.758Z,52.70
2017-11-22T12:06:31.312Z,53.40
2017-11-22T12:08:58.799Z,54.90
2017-11-22T12:11:28.019Z,54.70
2017-11-22T12:13:56.296Z,56.40
2017-11-22T12:16:23.771Z,56.10
2017-11-22T12:18:52.019Z,55.90
2017-11-22T12:21:28.365Z,55.80
2017-11-22T12:23:56.020Z,56.30
2017-11-22T12:26:23.505Z,56.10
2017-11-22T12:28:51.016Z,56.00
2017-11-22T12:31:18.807Z,55.80
2017-11-22T12:33:46.497Z,55.90
2017-11-22T12:36:13.977Z,56.30
2017-11-22T12:38:42.220Z,56.20
2017-11-22T12:41:09.739Z,56.10
2017-11-22T12:43:38.998Z,56.40
2017-11-22T12:46:06.464Z,56.10
2017-11-22T12:48:34.812Z,56.20
2017-11-22T12:51:03.371Z,56.70
2017-11-22T12:53:30.840Z,56.70
2017-11-22T12:55:58.325Z,56.00
2017-11-22T12:58:25.831Z,56.30
2017-11-22T13:00:53.507Z,56.40
2017-11-22T13:03:20.997Z,56.80
2017-11-22T13:05:48.632Z,56.60
2017-11-22T13:08:16.103Z,56.40
2017-11-22T13:10:45.530Z,56.30
2017-11-22T13:13:13.028Z,56.00
2017-11-22T13:15:40.558Z,55.90
2017-11-22T13:18:08.063Z,55.70
2017-11-22T13:20:35.539Z,55.80
2017-11-22T13:23:03.051Z,55.60
2017-11-22T13:25:31.327Z,56.00
2017-11-22T13:27:58.808Z,55.60
2017-11-22T13:30:26.332Z,55.30
2017-11-22T13:32:55.099Z,56.00
2017-11-22T13:35:24.514Z,56.20
2017-11-22T13:37:54.122Z,55.80
2017-11-22T13:40:22.368Z,56.60
2017-11-22T13:42:49.992Z,55.60
2017-11-22T13:45:18.254Z,56.10
2017-11-22T13:47:45.731Z,55.90
2017-11-22T13:50:13.994Z,55.90
2017-11-22T13:52:42.247Z,55.90
2017-11-22T13:55:09.732Z,55.90
2017-11-22T13:57:37.277Z,55.90
2017-11-22T14:00:04.799Z,56.00
2017-11-22T14:02:32.271Z,56.00
2017-11-22T14:04:59.774Z,56.00
2017-11-22T14:07:27.468Z,56.10
2017-11-22T14:09:55.741Z,56.60
2017-11-22T14:12:23.462Z,56.70
2017-11-22T14:14:51.109Z,56.30
2017-11-22T14:17:18.630Z,56.20
2017-11-22T14:19:46.110Z,56.10
2017-11-22T14:22:13.606Z,56.30
2017-11-22T14:24:41.971Z,56.20
2017-11-22T14:27:09.467Z,56.10
2017-11-22T14:29:37.137Z,56.40
2017-11-22T14:32:04.675Z,56.30
2017-11-22T14:34:33.091Z,57.00
2017-11-22T14:37:00.605Z,57.00
2017-11-22T14:39:28.176Z,57.20
2017-11-22T14:41:55.718Z,57.30
2017-11-22T14:44:23.295Z,57.50
2017-11-22T14:46:51.317Z,57.50
2017-11-22T14:49:18.927Z,57.60
2017-11-22T14:51:47.273Z,58.00
2017-11-22T14:54:14.797Z,57.90
2017-11-22T14:56:42.411Z,58.20
2017-11-22T14:59:11.594Z,58.10
2017-11-22T15:01:39.088Z,58.00
2017-11-22T15:04:07.367Z,59.30
2017-11-22T15:06:34.860Z,59.00
2017-11-22T15:09:02.358Z,59.20
2017-11-22T15:11:29.868Z,59.40
2017-11-22T15:13:57.384Z,59.50
2017-11-22T15:16:24.907Z,59.80
2017-11-22T15:18:52.530Z,60.60
2017-11-22T15:21:21.256Z,61.80
2017-11-22T15:23:48.766Z,61.80
2017-11-22T15:26:17.028Z,62.30
2017-11-22T15:28:44.560Z,62.30
2017-11-22T15:31:12.053Z,62.90
2017-11-22T15:33:40.097Z,63.00
2017-11-22T15:36:07.720Z,63.70
2017-11-22T15:38:35.236Z,64.20
2017-11-22T15:41:02.751Z,64.70
2017-11-22T15:43:30.509Z,64.60
2017-11-22T15:45:58.023Z,64.10
2017-11-22T15:48:25.725Z,64.60
2017-11-22T15:50:53.971Z,64.10
2017-11-22T15:53:21.471Z,64.10
2017-11-22T15:55:49.077Z,63.40
2017-11-22T15:58:16.553Z,62.70
2017-11-22T16:00:44.970Z,61.50
2017-11-22T16:03:12.811Z,61.30
2017-11-22T16:05:43.466Z,61.60
2017-11-22T16:08:10.957Z,62.30
2017-11-22T16:10:39.374Z,62.50
2017-11-22T16:13:06.860Z,62.70
2017-11-22T16:15:34.429Z,62.80
2017-11-22T16:18:01.935Z,61.70
2017-11-22T16:20:29.440Z,61.80
2017-11-22T16:22:56.942Z,62.10
2017-11-22T16:25:24.444Z,61.70
2017-11-22T16:27:51.938Z,61.80
2017-11-22T16:30:19.416Z,60.70
2017-11-22T16:32:46.890Z,60.90
2017-11-22T16:35:14.428Z,60.40
2017-11-22T16:37:43.966Z,60.00
2017-11-22T16:40:11.465Z,60.20
2017-11-22T16:42:40.008Z,60.20
2017-11-22T16:45:07.581Z,59.90
2017-11-22T16:47:35.940Z,60.00
2017-11-22T16:50:03.469Z,60.00
2017-11-22T16:52:30.957Z,59.50
2017-11-22T16:54:58.586Z,59.50
2017-11-22T16:57:26.203Z,59.80
2017-11-22T16:59:54.456Z,60.20
2017-11-22T17:02:21.972Z,60.10
2017-11-22T17:04:49.448Z,59.50
2017-11-22T17:07:16.970Z,59.20
2017-11-22T17:09:45.297Z,58.60
2017-11-22T17:12:12.783Z,58.60
2017-11-22T17:14:40.268Z,59.00
2017-11-22T17:17:07.824Z,58.90
2017-11-22T17:19:36.111Z,59.20
2017-11-22T17:22:03.590Z,59.10
2017-11-22T17:24:31.075Z,59.60
2017-11-22T17:26:58.610Z,59.90
2017-11-22T17:29:26.100Z,60.10
2017-11-22T17:31:53.602Z,60.00
2017-11-22T17:34:21.091Z,59.40
2017-11-22T17:36:48.602Z,58.80
2017-11-22T17:39:16.869Z,58.00
2017-11-22T17:41:45.955Z,58.00
2017-11-22T17:44:13.512Z,58.40
2017-11-22T17:46:40.999Z,58.70
2017-11-22T17:49:09.236Z,59.10
2017-11-22T17:51:36.784Z,59.10
2017-11-22T17:54:04.313Z,59.20
2017-11-22T17:56:31.792Z,58.70
2017-11-22T17:58:59.313Z,58.50
2017-11-22T18:01:29.907Z,58.10
2017-11-22T18:03:57.456Z,58.00
2017-11-22T18:06:24.942Z,58.20
2017-11-22T18:08:52.420Z,57.60
2017-11-22T18:11:20.678Z,57.00
2017-11-22T18:13:48.166Z,56.90
2017-11-22T18:16:16.440Z,55.80
2017-11-22T18:18:44.689Z,55.40
2017-11-22T18:21:12.254Z,55.40
2017-11-22T18:23:40.538Z,54.90
2017-11-22T18:26:08.050Z,54.90
2017-11-22T18:28:35.577Z,54.10
2017-11-22T18:31:03.816Z,54.20
2017-11-22T18:33:32.304Z,54.10
2017-11-22T18:35:59.791Z,54.40
2017-11-22T18:38:28.848Z,53.90
2017-11-22T18:40:56.620Z,53.90
2017-11-22T18:43:24.107Z,54.30
2017-11-22T18:45:52.357Z,54.30
2017-11-22T18:48:19.869Z,54.20
2017-11-22T18:50:48.580Z,54.20
2017-11-22T18:53:17.236Z,54.60
2017-11-22T18:55:45.030Z,55.00
2017-11-22T18:58:12.600Z,55.00
2017-11-22T19:00:41.171Z,55.00
2017-11-22T19:03:08.659Z,55.10
2017-11-22T19:05:36.164Z,55.20
2017-11-22T19:08:05.151Z,55.60
2017-11-22T19:10:32.653Z,55.70
2017-11-22T19:13:01.135Z,56.30
2017-11-22T19:15:31.279Z,56.30
2017-11-22T19:17:59.464Z,56.60
2017-11-22T19:20:27.113Z,57.30
2017-11-22T19:22:54.676Z,57.60
2017-11-22T19:25:22.198Z,57.80
2017-11-22T19:27:49.700Z,58.10
2017-11-22T19:30:18.013Z,58.20
2017-11-22T19:32:46.007Z,58.10
2017-11-22T19:35:13.939Z,58.30
2017-11-22T19:37:42.276Z,58.00
2017-11-22T19:40:11.356Z,57.90
2017-11-22T19:42:39.330Z,57.50
2017-11-22T19:45:08.222Z,57.80
2017-11-22T19:47:35.878Z,57.70
2017-11-22T19:50:03.471Z,56.50
2017-11-22T19:52:31.105Z,55.50
2017-11-22T19:54:59.015Z,55.00
2017-11-22T19:57:27.321Z,54.60
2017-11-22T19:59:54.889Z,53.70
2017-11-22T20:02:23.322Z,53.60
2017-11-22T20:04:51.633Z,53.20
2017-11-22T20:07:32.245Z,53.00
2017-11-22T20:09:59.757Z,53.00
2017-11-22T20:12:28.039Z,52.10
2017-11-22T20:14:57.314Z,52.00
2017-11-22T20:17:25.201Z,52.10
2017-11-22T20:19:53.525Z,51.60
2017-11-22T20:22:21.899Z,52.10
2017-11-22T20:24:49.399Z,52.10
2017-11-22T20:27:17.990Z,53.00
2017-11-22T20:29:45.744Z,52.70
2017-11-22T20:32:13.344Z,52.90
2017-11-22T20:34:41.057Z,53.80
2017-11-22T20:37:08.871Z,54.10
2017-11-22T20:39:36.386Z,54.30
2017-11-22T20:42:04.000Z,53.90
2017-11-22T20:44:31.561Z,54.00
2017-11-22T20:46:59.176Z,54.00
2017-11-22T20:49:26.925Z,54.10
2017-11-22T20:51:54.561Z,53.90
2017-11-22T20:54:22.148Z,52.90
2017-11-22T20:56:49.677Z,52.80
2017-11-22T20:59:17.287Z,52.80
2017-11-22T21:01:45.601Z,53.30
2017-11-22T21:04:14.103Z,53.00
2017-11-22T21:06:41.671Z,52.90
2017-11-22T21:09:09.248Z,53.20
2017-11-22T21:11:36.862Z,53.20
2017-11-22T21:14:04.449Z,53.00
2017-11-22T21:16:32.588Z,52.80
2017-11-22T21:19:00.900Z,52.30
2017-11-22T21:21:28.561Z,52.30
2017-11-22T21:23:56.229Z,52.30
2017-11-22T21:26:23.720Z,52.30
2017-11-22T21:28:51.214Z,52.10
2017-11-22T21:31:19.476Z,51.90
2017-11-22T21:33:47.757Z,51.90
2017-11-22T21:36:15.268Z,51.80
2017-11-22T21:38:42.744Z,51.90
2017-11-22T21:41:10.250Z,51.50
2017-11-22T21:43:38.500Z,51.20
2017-11-22T21:46:06.045Z,51.20
2017-11-22T21:48:33.702Z,50.80
2017-11-22T21:51:01.184Z,50.40
2017-11-22T21:53:28.684Z,50.80
2017-11-22T21:55:56.187Z,50.40
2017-11-22T21:58:23.678Z,50.40
2017-11-22T22:00:51.923Z,50.30
2017-11-22T22:03:19.476Z,50.20
2017-11-22T22:05:47.024Z,50.30
2017-11-22T22:08:14.539Z,50.10
2017-11-22T22:10:42.801Z,50.20
2017-11-22T22:13:10.293Z,50.20
2017-11-22T22:15:37.799Z,50.20
2017-11-22T22:18:05.283Z,50.30
2017-11-22T22:20:32.810Z,50.20
2017-11-22T22:23:00.345Z,50.00
2017-11-22T22:25:28.146Z,50.30
2017-11-22T22:27:55.688Z,50.10
2017-11-22T22:30:23.191Z,50.00
2017-11-22T22:32:51.463Z,50.20
2017-11-22T22:35:19.716Z,50.60
2017-11-22T22:37:47.258Z,50.60
2017-11-22T22:40:14.749Z,50.40
2017-11-22T22:42:43.011Z,51.00
2017-11-22T22:45:10.605Z,50.30
2017-11-22T22:47:38.897Z,51.30
2017-11-22T22:50:06.424Z,51.30
2017-11-22T22:52:34.208Z,51.80
2017-11-22T22:55:02.488Z,52.80
2017-11-22T22:57:30.072Z,52.90
2017-11-22T22:59:57.549Z,53.20
2017-11-22T23:02:25.031Z,53.90
2017-11-22T23:04:52.517Z,54.30
2017-11-22T23:07:20.829Z,53.90
2017-11-22T23:09:48.342Z,53.90
2017-11-22T23:12:15.911Z,54.00
2017-11-22T23:14:44.181Z,54.60
2017-11-22T23:17:12.456Z,54.80
2017-11-22T23:19:39.960Z,54.40
2017-11-22T23:22:07.693Z,54.40
2017-11-22T23:24:36.010Z,53.90
2017-11-22T23:27:03.569Z,53.90
2017-11-22T23:29:31.204Z,53.80
2017-11-22T23:31:58.713Z,53.80
2017-11-22T23:34:26.272Z,54.00
2017-11-22T23:36:53.769Z,54.90
2017-11-22T23:39:22.044Z,54.40
2017-11-22T23:41:50.309Z,54.40
2017-11-22T23:44:18.199Z,54.40
2017-11-22T23:46:46.486Z,54.80
2017-11-22T23:49:14.013Z,54.90
2017-11-22T23:51:41.528Z,55.00
2017-11-22T23:54:09.040Z,55.00
2017-11-22T23:56:37.334Z,55.00
2017-11-22T23:59:05.739Z,55.10
